Hansboro, North Dakota
Current Conditions -  °F | °C
As of 12:55 PM on Sunday 23 Nov 2014 (Local Time) from K06D Reporting Station
Light Snow Light Snow  
Wind Chill:   Ceiling: 500
Heat Index: 18°   Visibility: 3mi
Dew Point: 18°   Wind: 18mph
Humidity: 100%   Direction: 360°N
Pressure: 29.48"   Gusts: NA
Location:  48.95°N, 99.38°W
Report Text: K06D 231855Z AUTO 36016KT 3SM -SN BKN005 M08/M08 A2948 RMK AO2
Loading
Personal Weather Stations






























Interactive Weather Map New forecast layout! Learn more

10-Day Weather Forecast

Advertisements
Track Severe Weather on mobile